Time;durP1;ratioP1;P1;durP2;ratioP2;P2;SDS_P1;SDS_P2;PMS_P1;PMS_P2;Temp;Humidity;BMP_temperature;BMP_pressure;BME280_temperature;BME280_humidity;BME280_pressure;Samples;Min_cycle;Max_cycle;Signal;HPM_P1;HPM_P2
2022/02/12 00:03:19;;;;;;;14.80;2.95;;;0.40;99.90;;;;;;12610516;28;20092;-39
2022/02/12 00:09:21;;;;;;;12.85;3.72;;;0.50;99.90;;;;;;12610056;28;20086;-39
2022/02/12 00:15:23;;;;;;;15.07;3.28;;;0.70;99.90;;;;;;12608684;28;20166;-39
2022/02/12 00:21:25;;;;;;;16.27;3.70;;;0.70;99.90;;;;;;12592598;28;20592;-39
2022/02/12 00:27:28;;;;;;;16.20;3.33;;;0.70;99.90;;;;;;12619192;28;20040;-36
2022/02/12 00:33:30;;;;;;;11.40;2.70;;;0.30;99.90;;;;;;12619289;28;20040;-36
2022/02/12 00:39:31;;;;;;;20.83;3.25;;;0.30;99.90;;;;;;12618561;28;20044;-36
2022/02/12 00:45:33;;;;;;;19.95;3.70;;;0.10;99.90;;;;;;12621771;28;20048;-36
2022/02/12 00:51:35;;;;;;;20.10;3.88;;;-0.10;99.90;;;;;;12617932;28;20139;-39
2022/02/12 00:57:37;;;;;;;16.85;4.10;;;-0.10;99.90;;;;;;12615760;28;20047;-39
2022/02/12 01:03:39;;;;;;;16.83;3.85;;;0.00;99.90;;;;;;12619941;28;20050;-36
2022/02/12 01:09:41;;;;;;;18.60;3.70;;;0.10;99.90;;;;;;12615600;28;20060;-39
2022/02/12 01:15:43;;;;;;;12.90;3.40;;;0.10;99.90;;;;;;12615712;28;20452;-36
2022/02/12 01:21:45;;;;;;;16.00;3.17;;;0.10;99.90;;;;;;12597663;28;20052;-39
2022/02/12 01:27:47;;;;;;;21.70;3.83;;;0.30;99.90;;;;;;12615933;28;20160;-40
2022/02/12 01:33:49;;;;;;;14.70;3.22;;;0.20;99.90;;;;;;12613932;28;20139;-37
2022/02/12 01:39:52;;;;;;;15.15;3.42;;;0.20;99.90;;;;;;12617306;28;20040;-39
2022/02/12 01:45:54;;;;;;;8.57;3.55;;;0.00;99.90;;;;;;12616958;28;20089;-39
2022/02/12 01:51:58;;;;;;;14.00;4.18;;;-0.10;99.90;;;;;;12613760;28;20067;-39
2022/02/12 01:58:00;;;;;;;20.88;6.05;;;-0.20;99.90;;;;;;12613864;28;20163;-39
2022/02/12 02:04:02;;;;;;;20.65;5.78;;;-0.30;99.90;;;;;;12614359;28;20052;-40
2022/02/12 02:10:05;;;;;;;15.68;5.30;;;-0.40;99.90;;;;;;12614421;28;20108;-36
2022/02/12 02:16:12;;;;;;;19.98;5.70;;;-0.40;99.90;;;;;;12614860;28;20046;-36
2022/02/12 02:22:16;;;;;;;13.18;6.38;;;-0.50;99.90;;;;;;12611400;28;20044;-40
2022/02/12 02:28:17;;;;;;;24.42;5.72;;;-0.60;99.90;;;;;;12610517;28;20054;-40
2022/02/12 02:34:19;;;;;;;19.88;7.40;;;-0.60;99.90;;;;;;12611084;28;20135;-36
2022/02/12 02:40:22;;;;;;;21.80;7.55;;;-0.70;99.90;;;;;;12613960;28;20051;-36
2022/02/12 02:46:24;;;;;;;37.08;10.27;;;-0.80;99.90;;;;;;12579810;28;20160;-40
2022/02/12 02:58:48;;;;;;;22.08;11.63;;;-0.90;99.90;;;;;;12612451;28;20553;-38
2022/02/12 03:04:50;;;;;;;17.48;8.70;;;-1.00;99.90;;;;;;12609208;28;20099;-37
2022/02/12 03:10:52;;;;;;;19.10;8.48;;;-1.00;99.90;;;;;;12610587;28;20100;-36
2022/02/12 03:16:54;;;;;;;19.33;8.65;;;-1.00;99.90;;;;;;12609026;28;20100;-36
2022/02/12 03:22:56;;;;;;;18.35;7.78;;;-1.00;99.90;;;;;;12610947;28;20044;-41
2022/02/12 03:28:58;;;;;;;23.33;7.82;;;-1.10;99.90;;;;;;12607539;28;20175;-36
2022/02/12 03:35:00;;;;;;;19.15;5.93;;;-1.20;99.90;;;;;;12607819;28;20051;-39
2022/02/12 03:41:05;;;;;;;18.77;5.78;;;-0.90;99.90;;;;;;12608314;28;20056;-40
2022/02/12 03:47:07;;;;;;;15.25;7.38;;;-0.80;99.90;;;;;;12611973;28;20163;-41
2022/02/12 03:53:10;;;;;;;15.00;7.65;;;-0.80;99.90;;;;;;12607789;28;20066;-40
2022/02/12 03:59:12;;;;;;;22.98;6.82;;;-0.80;99.90;;;;;;12620570;28;20104;-40
2022/02/12 04:05:15;;;;;;;19.45;7.05;;;-0.90;99.90;;;;;;12616894;28;20157;-36
2022/02/12 04:11:21;;;;;;;17.15;7.10;;;-0.90;99.90;;;;;;12600901;28;20143;-36
2022/02/12 04:17:24;;;;;;;18.53;5.87;;;-0.90;99.90;;;;;;12620414;28;20167;-40
2022/02/12 04:23:26;;;;;;;19.73;6.13;;;-0.90;99.90;;;;;;12619099;28;20325;-39
2022/02/12 04:29:28;;;;;;;15.10;5.38;;;-0.60;99.90;;;;;;12618115;28;20342;-36
2022/02/12 04:35:30;;;;;;;13.18;4.63;;;-0.40;99.90;;;;;;12618681;28;20105;-36
2022/02/12 04:41:32;;;;;;;17.35;4.30;;;-0.20;99.90;;;;;;12618570;28;20112;-36
2022/02/12 04:47:36;;;;;;;18.50;3.97;;;-0.20;99.90;;;;;;12599724;28;20048;-36
2022/02/12 04:53:38;;;;;;;14.18;4.53;;;-0.20;99.90;;;;;;12616769;28;20112;-39
2022/02/12 04:59:40;;;;;;;11.07;3.47;;;0.00;99.90;;;;;;12615190;28;20048;-40
2022/02/12 05:05:42;;;;;;;11.55;3.75;;;-0.10;99.90;;;;;;12618735;28;20071;-37
2022/02/12 05:11:46;;;;;;;9.65;3.67;;;-0.30;99.90;;;;;;12613583;28;20480;-36
2022/02/12 05:17:48;;;;;;;10.25;4.00;;;-0.30;99.90;;;;;;12616010;28;20511;-36
2022/02/12 05:23:50;;;;;;;11.32;4.05;;;-0.30;99.90;;;;;;12614298;28;20129;-36
2022/02/12 05:29:52;;;;;;;15.40;3.63;;;-0.20;99.90;;;;;;12617238;28;20105;-39
2022/02/12 05:35:54;;;;;;;14.25;3.50;;;-0.20;99.90;;;;;;12611678;28;20051;-36
2022/02/12 05:41:56;;;;;;;11.60;3.22;;;-0.20;99.90;;;;;;12614210;28;20124;-39
2022/02/12 05:48:01;;;;;;;15.95;3.83;;;-0.30;99.90;;;;;;12612210;28;20645;-36
2022/02/12 05:54:05;;;;;;;9.63;3.33;;;-0.40;99.90;;;;;;12613639;28;20048;-41
2022/02/12 06:00:07;;;;;;;16.10;2.97;;;-0.50;99.90;;;;;;12612083;28;21055;-40
2022/02/12 06:06:09;;;;;;;13.40;2.78;;;-0.40;99.90;;;;;;12615123;28;20533;-39
2022/02/12 06:12:11;;;;;;;14.10;2.83;;;-0.50;99.90;;;;;;12593061;28;20044;-36
2022/02/12 06:18:13;;;;;;;10.90;2.60;;;-0.50;99.90;;;;;;12610675;28;20553;-36
2022/02/12 06:24:15;;;;;;;12.35;2.63;;;-0.40;99.90;;;;;;12609062;28;20044;-36
2022/02/12 06:30:17;;;;;;;12.05;2.78;;;-0.50;99.90;;;;;;12610350;28;20060;-39
2022/02/12 06:36:19;;;;;;;11.50;2.28;;;-0.40;99.90;;;;;;12611148;28;20560;-37
2022/02/12 06:42:22;;;;;;;14.43;2.80;;;-0.40;99.90;;;;;;12612643;28;20043;-36
2022/02/12 06:48:24;;;;;;;10.50;2.47;;;-0.30;99.90;;;;;;12614294;28;20060;-39
2022/02/12 06:54:26;;;;;;;10.00;2.10;;;-0.20;99.90;;;;;;12595002;28;20052;-40
2022/02/12 07:00:29;;;;;;;11.60;2.30;;;-0.10;99.90;;;;;;12613155;28;20484;-36
2022/02/12 07:06:31;;;;;;;16.50;3.10;;;-0.10;99.90;;;;;;12594816;28;20061;-36
2022/02/12 07:12:36;;;;;;;13.35;2.30;;;0.00;99.90;;;;;;12612418;28;20484;-36
2022/02/12 07:18:39;;;;;;;9.18;1.90;;;0.00;99.90;;;;;;12608751;28;20134;-39
2022/02/12 07:24:40;;;;;;;5.72;1.52;;;0.10;99.90;;;;;;12610463;28;20055;-39
2022/02/12 07:30:44;;;;;;;13.45;2.20;;;0.20;99.90;;;;;;12608405;28;20130;-36
2022/02/12 07:36:46;;;;;;;9.90;1.92;;;0.30;99.90;;;;;;12614199;28;20100;-36
2022/02/12 07:42:49;;;;;;;7.03;1.70;;;0.40;99.90;;;;;;12607163;28;20079;-40
2022/02/12 07:48:52;;;;;;;8.40;1.97;;;0.40;99.90;;;;;;12595538;28;20144;-39
2022/02/12 07:54:54;;;;;;;8.63;2.58;;;0.40;99.90;;;;;;12606339;28;20328;-36
2022/02/12 08:00:56;;;;;;;8.25;2.00;;;0.50;99.90;;;;;;12609431;28;20044;-40
2022/02/12 08:13:19;;;;;;;8.25;2.10;;;0.70;99.90;;;;;;12607318;28;20052;-41
2022/02/12 08:19:22;;;;;;;11.43;2.53;;;0.80;99.90;;;;;;12608565;28;20143;-36
2022/02/12 08:25:24;;;;;;;7.95;2.17;;;0.80;99.90;;;;;;12604057;28;20048;-37
2022/02/12 08:31:26;;;;;;;10.15;2.10;;;0.90;99.90;;;;;;12612992;28;20043;-40
2022/02/12 08:37:28;;;;;;;8.63;2.35;;;1.10;99.90;;;;;;12610342;28;20144;-40
2022/02/12 08:43:30;;;;;;;8.77;1.60;;;1.30;99.90;;;;;;12617018;28;20080;-38
2022/02/12 08:49:33;;;;;;;8.20;1.55;;;1.60;99.90;;;;;;12623707;28;20429;-39
2022/02/12 08:55:36;;;;;;;8.02;1.77;;;1.80;99.90;;;;;;12623625;28;20048;-40
2022/02/12 09:01:38;;;;;;;11.75;2.22;;;2.00;99.90;;;;;;12620045;28;20052;-36
2022/02/12 09:07:39;;;;;;;12.73;2.05;;;2.30;99.90;;;;;;12623872;28;20484;-36
2022/02/12 09:13:43;;;;;;;9.50;1.90;;;2.50;99.90;;;;;;12616507;28;20048;-40
2022/02/12 09:19:45;;;;;;;5.45;1.60;;;2.60;99.90;;;;;;12619175;28;20055;-40
2022/02/12 09:25:48;;;;;;;4.45;1.35;;;2.70;99.90;;;;;;12617648;28;20064;-41
2022/02/12 09:31:49;;;;;;;10.18;2.67;;;2.80;99.90;;;;;;12621804;28;20046;-36
2022/02/12 09:37:52;;;;;;;10.18;1.70;;;2.70;99.90;;;;;;12627105;28;20135;-36
2022/02/12 09:43:55;;;;;;;12.82;2.17;;;2.60;99.90;;;;;;12629642;28;20542;-39
2022/02/12 09:49:59;;;;;;;9.88;3.67;;;2.60;99.90;;;;;;12629408;28;20047;-41
2022/02/12 09:56:04;;;;;;;7.85;1.80;;;2.70;99.90;;;;;;12625837;28;20141;-39
2022/02/12 10:02:09;;;;;;;7.38;1.95;;;2.90;99.90;;;;;;12624191;28;20044;-39
2022/02/12 10:08:15;;;;;;;;;;;3.00;99.90;;;;;;12626956;28;20761;-36
2022/02/12 10:14:22;;;;;;;8.70;2.13;;;3.10;99.90;;;;;;12625798;28;19927;-39
2022/02/12 10:20:33;;;;;;;14.70;3.20;;;3.30;99.90;;;;;;12604095;28;20051;-42
2022/02/12 10:26:59;;;;;;;10.70;3.10;;;3.70;99.90;;;;;;12629971;28;20089;-36
2022/02/12 10:33:08;;;;;;;12.32;3.63;;;4.00;99.90;;;;;;12622719;28;20723;-39
2022/02/12 10:39:10;;;;;;;11.27;2.10;;;4.30;99.90;;;;;;12618746;28;20473;-39
2022/02/12 10:45:18;;;;;;;13.52;2.38;;;4.30;99.90;;;;;;12620545;28;20142;-39
2022/02/12 10:51:21;;;;;;;12.07;2.55;;;4.40;99.90;;;;;;12618335;28;20044;-36
2022/02/12 10:57:29;;;;;;;11.63;2.42;;;4.50;99.90;;;;;;12605303;28;20063;-39
2022/02/12 11:03:33;;;;;;;11.68;2.50;;;4.60;99.90;;;;;;12622217;28;20516;-36
2022/02/12 11:09:36;;;;;;;11.27;2.53;;;4.50;99.90;;;;;;12607516;28;20135;-39
2022/02/12 11:15:38;;;;;;;9.60;1.90;;;4.70;99.90;;;;;;12624546;28;20104;-39
2022/02/12 11:21:43;;;;;;;13.32;2.90;;;4.90;99.90;;;;;;12621804;28;20060;-39
2022/02/12 11:28:03;;;;;;;9.63;2.47;;;4.90;99.90;;;;;;12618739;28;20135;-39
2022/02/12 11:34:13;;;;;;;13.13;2.33;;;4.90;99.90;;;;;;12620677;28;20474;-36
2022/02/12 11:40:24;;;;;;;13.18;2.33;;;5.00;99.90;;;;;;12600761;28;20101;-36
2022/02/12 11:46:41;;;;;;;11.45;2.42;;;5.00;99.90;;;;;;12623241;28;20106;-40
2022/02/12 11:52:46;;;;;;;7.22;1.77;;;5.30;99.90;;;;;;12621332;28;20084;-36
2022/02/12 11:58:53;;;;;;;8.88;2.00;;;5.10;99.90;;;;;;12624852;28;20055;-38
2022/02/12 12:05:27;;;;;;;12.90;1.95;;;5.40;99.90;;;;;;12623716;28;20079;-36
2022/02/12 12:11:33;;;;;;;7.97;2.17;;;5.60;99.90;;;;;;12626076;28;20068;-41
2022/02/12 12:17:35;;;;;;;6.50;2.00;;;5.70;99.90;;;;;;12623393;28;20668;-36
2022/02/12 12:23:38;;;;;;;7.82;2.05;;;5.90;99.90;;;;;;12624637;28;20048;-36
2022/02/12 12:36:10;;;;;;;11.57;2.45;;;5.80;99.90;;;;;;12627006;28;20171;-36
2022/02/12 12:42:14;;;;;;;8.07;1.98;;;5.90;99.90;;;;;;12626508;28;20441;-39
2022/02/12 12:48:16;;;;;;;9.95;2.05;;;5.80;99.90;;;;;;12604125;28;20047;-36
2022/02/12 12:54:29;;;;;;;8.80;3.03;;;5.60;99.90;;;;;;12622584;28;20159;-36
2022/02/12 13:00:32;;;;;;;10.90;3.38;;;5.70;99.90;;;;;;12625790;28;20093;-37
2022/02/12 13:06:49;;;;;;;11.23;3.75;;;5.60;99.90;;;;;;12626352;28;20579;-41
2022/02/12 13:12:52;;;;;;;9.20;3.00;;;5.70;99.90;;;;;;12623464;28;20044;-36
2022/02/12 13:18:54;;;;;;;15.68;3.10;;;5.70;99.90;;;;;;12626112;28;20048;-37
2022/02/12 13:24:57;;;;;;;7.25;2.00;;;5.50;99.90;;;;;;12622742;28;20044;-40
2022/02/12 13:31:08;;;;;;;7.97;2.20;;;5.50;99.90;;;;;;12622306;28;20048;-37
2022/02/12 13:37:11;;;;;;;9.77;1.98;;;5.60;99.90;;;;;;12625523;28;20067;-39
2022/02/12 13:43:20;;;;;;;6.82;1.90;;;5.60;99.90;;;;;;12622129;28;20403;-36
2022/02/12 13:49:25;;;;;;;7.65;2.00;;;5.50;99.90;;;;;;12624446;28;20161;-36
2022/02/12 13:55:45;;;;;;;8.57;2.45;;;5.40;99.90;;;;;;12603292;28;20047;-36
2022/02/12 14:01:51;;;;;;;5.93;2.00;;;5.50;99.90;;;;;;12623161;28;20478;-39
2022/02/12 14:07:56;;;;;;;11.05;2.55;;;5.40;99.90;;;;;;12620220;28;20044;-35
2022/02/12 14:13:59;;;;;;;16.55;3.15;;;5.30;99.90;;;;;;12619726;28;20043;-35
2022/02/12 14:20:01;;;;;;;6.68;2.45;;;5.30;99.90;;;;;;12614909;28;20102;-35
2022/02/12 14:26:05;;;;;;;12.85;4.00;;;5.30;99.90;;;;;;12616158;28;20051;-38
2022/02/12 14:32:08;;;;;;;7.43;1.95;;;5.20;99.90;;;;;;12618539;28;20442;-39
2022/02/12 14:38:10;;;;;;;6.60;2.10;;;5.20;99.90;;;;;;12616026;28;20048;-36
2022/02/12 14:44:12;;;;;;;9.75;2.50;;;5.30;99.90;;;;;;12616960;28;20048;-35
2022/02/12 14:50:14;;;;;;;7.47;2.50;;;5.10;99.90;;;;;;12618227;28;20040;-39
2022/02/12 14:56:17;;;;;;;9.30;2.45;;;5.00;99.90;;;;;;12619898;28;20052;-35
2022/02/12 15:02:21;;;;;;;5.70;2.33;;;5.00;99.90;;;;;;12617917;28;20040;-37
2022/02/12 15:08:25;;;;;;;11.18;2.03;;;5.00;99.90;;;;;;12622846;28;20062;-40
2022/02/12 15:14:33;;;;;;;7.53;2.03;;;4.90;99.90;;;;;;12627403;28;20055;-39
2022/02/12 15:20:36;;;;;;;9.07;2.25;;;4.90;99.90;;;;;;12626540;28;20047;-36
2022/02/12 15:26:39;;;;;;;9.50;2.15;;;4.90;99.90;;;;;;12624783;28;20136;-35
2022/02/12 15:32:41;;;;;;;9.00;1.90;;;4.80;99.90;;;;;;12623844;28;20071;-36
2022/02/12 15:38:45;;;;;;;10.15;2.33;;;4.80;99.90;;;;;;12625906;28;20059;-39
2022/02/12 15:44:47;;;;;;;7.88;2.05;;;4.70;99.90;;;;;;12623577;28;20075;-39
2022/02/12 15:50:50;;;;;;;13.27;6.63;;;4.60;99.90;;;;;;12610632;28;20075;-39
2022/02/12 15:56:52;;;;;;;11.50;2.80;;;4.60;99.90;;;;;;12632752;28;20097;-40
2022/02/12 16:02:54;;;;;;;7.47;2.80;;;4.60;99.90;;;;;;12634157;28;20093;-41
2022/02/12 16:08:56;;;;;;;8.07;3.33;;;4.50;99.90;;;;;;12632922;28;20052;-36
2022/02/12 16:14:58;;;;;;;5.18;1.70;;;4.40;99.90;;;;;;12632716;28;20138;-37
2022/02/12 16:21:00;;;;;;;4.70;1.48;;;4.30;99.90;;;;;;12633117;28;20105;-39
2022/02/12 16:27:02;;;;;;;4.53;1.67;;;4.20;99.90;;;;;;12632581;28;20081;-39
2022/02/12 16:33:04;;;;;;;5.72;1.65;;;4.10;99.90;;;;;;12632827;28;20112;-37
2022/02/12 16:39:08;;;;;;;8.35;3.10;;;3.90;99.90;;;;;;12633257;28;20120;-39
2022/02/12 16:45:11;;;;;;;8.55;4.38;;;3.70;99.90;;;;;;12633106;28;20044;-39
2022/02/12 16:51:14;;;;;;;7.05;2.10;;;3.80;99.90;;;;;;12613256;28;20472;-36
2022/02/12 16:57:17;;;;;;;5.33;1.50;;;3.70;99.90;;;;;;12630569;28;20048;-39
2022/02/12 17:03:19;;;;;;;5.35;1.73;;;3.50;99.90;;;;;;12610377;28;20048;-40
2022/02/12 17:09:22;;;;;;;4.10;1.60;;;3.40;99.90;;;;;;12632467;28;20437;-36
2022/02/12 17:15:25;;;;;;;5.72;2.00;;;3.30;99.90;;;;;;12629206;28;20040;-39
2022/02/12 17:21:27;;;;;;;6.93;2.83;;;3.30;99.90;;;;;;12632217;28;20246;-35
2022/02/12 17:27:48;;;;;;;7.97;3.63;;;3.20;99.90;;;;;;12632616;28;20052;-39
2022/02/12 17:33:50;;;;;;;4.60;1.80;;;3.10;99.90;;;;;;12630669;28;20059;-35
2022/02/12 17:39:57;;;;;;;5.93;1.48;;;2.90;99.90;;;;;;12632483;28;20131;-35
2022/02/12 17:46:18;;;;;;;4.78;1.70;;;2.90;99.90;;;;;;12640590;28;20416;-36
2022/02/12 17:52:24;;;;;;;6.43;2.80;;;3.00;99.90;;;;;;12639875;28;20055;-40
2022/02/12 17:58:30;;;;;;;7.18;3.10;;;3.00;99.90;;;;;;12631040;28;20048;-36
2022/02/12 18:04:39;;;;;;;5.18;1.65;;;3.00;99.90;;;;;;12631182;28;20412;-36
2022/02/12 18:10:42;;;;;;;7.22;1.90;;;2.90;99.90;;;;;;12632627;28;20052;-40
2022/02/12 18:16:44;;;;;;;8.68;2.88;;;2.80;99.90;;;;;;12625946;28;20079;-36
2022/02/12 18:22:46;;;;;;;4.80;2.03;;;2.70;99.90;;;;;;12622792;28;20048;-36
2022/02/12 18:28:48;;;;;;;5.45;2.75;;;2.60;99.90;;;;;;12629068;28;20570;-40
2022/02/12 18:34:51;;;;;;;6.32;3.35;;;2.70;99.90;;;;;;12627736;28;20051;-36
2022/02/12 18:40:55;;;;;;;9.68;5.32;;;2.70;99.90;;;;;;12623012;28;20082;-36
2022/02/12 18:47:18;;;;;;;9.85;4.15;;;2.70;99.90;;;;;;12623639;28;20059;-39
2022/02/12 18:53:20;;;;;;;8.75;3.17;;;2.70;99.90;;;;;;12627602;28;20504;-36
2022/02/12 18:59:23;;;;;;;6.47;1.65;;;2.70;99.90;;;;;;12625169;28;20079;-36
2022/02/12 19:05:27;;;;;;;4.57;1.67;;;2.70;99.90;;;;;;12623052;28;20048;-39
2022/02/12 19:11:30;;;;;;;6.18;1.80;;;2.60;99.90;;;;;;12628126;28;20036;-42
2022/02/12 19:17:32;;;;;;;4.90;1.85;;;2.50;99.90;;;;;;12625712;28;20051;-39
2022/02/12 19:23:35;;;;;;;6.72;2.40;;;2.50;99.90;;;;;;12605288;28;20404;-36
2022/02/12 19:29:37;;;;;;;5.57;1.77;;;2.60;99.90;;;;;;12606366;28;20059;-36
2022/02/12 19:35:39;;;;;;;4.45;1.80;;;2.50;99.90;;;;;;12621529;28;20079;-41
2022/02/12 19:41:44;;;;;;;6.32;2.00;;;2.60;99.90;;;;;;12625295;28;20169;-40
2022/02/12 19:47:46;;;;;;;5.50;1.80;;;2.50;99.90;;;;;;12623736;28;20545;-36
2022/02/12 19:53:53;;;;;;;5.72;2.20;;;2.40;99.90;;;;;;12623677;28;20419;-36
2022/02/12 19:59:55;;;;;;;6.70;2.10;;;2.30;99.90;;;;;;12624535;28;20048;-40
2022/02/12 20:05:57;;;;;;;3.60;1.77;;;2.30;99.90;;;;;;12625354;28;20087;-40
2022/02/12 20:12:00;;;;;;;3.70;1.77;;;2.30;99.90;;;;;;12623357;28;20048;-36
2022/02/12 20:18:02;;;;;;;6.35;3.38;;;2.20;99.90;;;;;;12625364;28;20044;-40
2022/02/12 20:24:04;;;;;;;8.88;1.67;;;2.30;99.90;;;;;;12622108;28;20044;-37
2022/02/12 20:30:12;;;;;;;7.90;3.13;;;2.20;99.90;;;;;;12625429;28;20043;-39
2022/02/12 20:36:21;;;;;;;5.88;2.33;;;2.30;99.90;;;;;;12622582;28;20040;-36
2022/02/12 20:42:23;;;;;;;6.65;2.10;;;2.10;99.90;;;;;;12632841;28;20052;-36
2022/02/12 20:48:27;;;;;;;6.18;1.95;;;2.00;99.90;;;;;;12615004;28;20048;-36
2022/02/12 20:54:30;;;;;;;5.28;2.00;;;1.90;99.90;;;;;;12631091;28;20048;-36
2022/02/12 21:00:32;;;;;;;7.13;2.10;;;1.90;99.90;;;;;;12623147;28;20059;-36
2022/02/12 21:06:34;;;;;;;5.45;2.20;;;1.90;99.90;;;;;;12617091;28;20048;-39
2022/02/12 21:12:37;;;;;;;9.60;2.60;;;1.80;99.90;;;;;;12616806;28;20116;-36
2022/02/12 21:18:43;;;;;;;10.00;3.25;;;1.90;99.90;;;;;;12617265;28;20044;-36
2022/02/12 21:24:46;;;;;;;8.20;2.30;;;1.90;99.90;;;;;;12616953;28;20477;-39
2022/02/12 21:30:48;;;;;;;4.43;2.15;;;1.90;99.90;;;;;;12617421;28;20636;-36
2022/02/12 21:36:51;;;;;;;11.65;2.50;;;1.80;99.90;;;;;;12617663;28;20051;-39
2022/02/12 21:42:53;;;;;;;5.95;2.67;;;1.80;99.90;;;;;;12596399;28;20060;-36
2022/02/12 21:48:55;;;;;;;4.55;2.22;;;1.80;99.90;;;;;;12618102;28;20143;-41
2022/02/12 21:54:57;;;;;;;10.73;3.00;;;1.80;99.90;;;;;;12615060;28;20092;-40
2022/02/12 22:00:59;;;;;;;8.70;2.72;;;1.90;99.90;;;;;;12615413;28;20407;-36
2022/02/12 22:07:01;;;;;;;6.47;2.88;;;1.90;99.90;;;;;;12615608;28;20395;-40
2022/02/12 22:13:03;;;;;;;7.55;2.88;;;2.00;99.90;;;;;;12614804;28;20044;-39
2022/02/12 22:19:05;;;;;;;7.78;3.42;;;2.00;99.90;;;;;;12614538;28;20746;-37
2022/02/12 22:25:09;;;;;;;7.13;2.95;;;1.90;99.90;;;;;;12613112;28;20714;-36
2022/02/12 22:31:12;;;;;;;6.10;2.78;;;1.90;99.90;;;;;;12615323;28;20527;-37
2022/02/12 22:37:16;;;;;;;;;;;1.90;99.90;;;;;;12611456;28;20051;-40
2022/02/12 22:43:18;;;;;;;7.03;2.80;;;1.70;99.90;;;;;;12610808;28;20135;-36
2022/02/12 22:49:20;;;;;;;6.85;2.60;;;1.70;99.90;;;;;;12617103;28;20048;-39
2022/02/12 22:55:25;;;;;;;9.63;3.10;;;1.60;99.90;;;;;;12613783;28;20044;-39
2022/02/12 23:01:27;;;;;;;6.93;2.92;;;1.60;99.90;;;;;;12616725;28;20531;-39
2022/02/12 23:07:29;;;;;;;7.05;2.90;;;1.70;99.90;;;;;;12618528;28;20938;-36
2022/02/12 23:13:35;;;;;;;7.38;2.95;;;1.70;99.90;;;;;;12593697;28;20059;-36
2022/02/12 23:19:37;;;;;;;8.25;3.38;;;1.70;99.90;;;;;;12611853;28;20480;-36
2022/02/12 23:25:39;;;;;;;11.35;3.05;;;1.80;99.90;;;;;;12612861;28;20088;-36
2022/02/12 23:31:41;;;;;;;8.50;2.97;;;1.80;99.90;;;;;;12614671;28;20063;-39
2022/02/12 23:37:43;;;;;;;7.57;2.90;;;1.80;99.90;;;;;;12615452;28;20948;-39
2022/02/12 23:43:48;;;;;;;8.10;3.03;;;1.80;99.90;;;;;;12614008;28;20097;-36
2022/02/12 23:49:51;;;;;;;7.72;3.03;;;1.70;99.90;;;;;;12595619;28;20294;-37
2022/02/12 23:55:59;;;;;;;9.27;3.63;;;1.70;99.90;;;;;;12614160;28;20432;-39
